createdAt,value
2018-06-28T00:02:13.276Z,85.40
2018-06-28T00:04:43.921Z,86.20
2018-06-28T00:07:14.650Z,82.90
2018-06-28T00:09:45.887Z,83.10
2018-06-28T00:12:16.772Z,86.70
2018-06-28T00:14:47.452Z,84.30
2018-06-28T00:19:48.303Z,84.80
2018-06-28T00:22:19.041Z,87.50
2018-06-28T00:27:19.620Z,85.00
2018-06-28T00:29:50.932Z,85.90
2018-06-28T00:32:21.610Z,88.80
2018-06-28T00:34:52.172Z,89.80
2018-06-28T00:37:22.703Z,88.30
2018-06-28T00:39:53.476Z,85.90
2018-06-28T00:42:24.118Z,88.80
2018-06-28T00:44:54.773Z,88.60
2018-06-28T00:47:28.442Z,86.50
2018-06-28T00:49:59.578Z,89.60
2018-06-28T00:55:00.329Z,87.90
2018-06-28T01:02:31.309Z,89.30
2018-06-28T01:05:02.108Z,89.70
2018-06-28T01:07:32.630Z,89.20
2018-06-28T01:10:03.271Z,89.90
2018-06-28T01:12:34.057Z,91.20
2018-06-28T01:15:04.915Z,88.90
2018-06-28T01:17:35.759Z,90.00
2018-06-28T01:20:06.977Z,89.80
2018-06-28T01:22:37.800Z,88.90
2018-06-28T01:25:08.647Z,90.50
2018-06-28T01:27:39.469Z,90.20
2018-06-28T01:30:10.143Z,90.50
2018-06-28T01:32:40.670Z,90.90
2018-06-28T01:35:11.450Z,88.40
2018-06-28T01:40:12.270Z,90.30
2018-06-28T01:42:58.357Z,89.20
2018-06-28T01:45:29.012Z,90.20
2018-06-28T01:48:00.069Z,89.70
2018-06-28T01:50:30.738Z,91.50
2018-06-28T01:53:01.485Z,90.70
2018-06-28T01:55:32.457Z,90.50
2018-06-28T01:58:02.973Z,88.20
2018-06-28T02:00:33.467Z,91.00
2018-06-28T02:03:04.275Z,90.50
2018-06-28T02:08:05.280Z,87.90
2018-06-28T02:11:02.149Z,88.60
2018-06-28T02:13:33.408Z,89.50
2018-06-28T02:16:04.104Z,90.70
2018-06-28T02:18:34.835Z,91.20
2018-06-28T02:21:05.587Z,90.00
2018-06-28T02:23:36.260Z,89.60
2018-06-28T02:28:37.245Z,91.50
2018-06-28T02:31:08.284Z,88.60
2018-06-28T02:33:38.813Z,88.90
2018-06-28T02:36:09.331Z,90.80
2018-06-28T02:38:39.908Z,90.00
2018-06-28T02:41:10.854Z,89.60
2018-06-28T02:43:41.548Z,89.90
2018-06-28T02:46:28.936Z,88.80
2018-06-28T02:48:59.577Z,89.40
2018-06-28T02:54:00.463Z,90.10
2018-06-28T02:56:31.103Z,90.60
2018-06-28T02:59:01.741Z,90.60
2018-06-28T03:01:32.550Z,90.80
2018-06-28T03:04:03.147Z,90.90
2018-06-28T03:06:33.737Z,91.20
2018-06-28T03:09:06.184Z,91.00
2018-06-28T03:11:37.471Z,91.00
2018-06-28T03:14:09.105Z,91.50
2018-06-28T03:16:39.571Z,91.50
2018-06-28T03:19:10.169Z,91.70
2018-06-28T03:21:40.909Z,91.40
2018-06-28T03:24:11.598Z,91.30
2018-06-28T03:26:42.221Z,91.40
2018-06-28T03:31:43.225Z,91.80
2018-06-28T03:34:13.977Z,91.60
2018-06-28T03:36:44.682Z,92.00
2018-06-28T03:39:15.507Z,91.70
2018-06-28T03:41:46.262Z,92.00
2018-06-28T03:44:17.057Z,91.70
2018-06-28T03:49:17.905Z,91.90
2018-06-28T03:56:48.722Z,91.90
2018-06-28T03:59:19.551Z,92.00
2018-06-28T04:01:50.042Z,92.20
2018-06-28T04:06:51.290Z,92.10
2018-06-28T04:09:21.896Z,92.20
2018-06-28T04:11:52.609Z,92.00
2018-06-28T04:14:25.190Z,92.10
2018-06-28T04:16:56.138Z,92.00
2018-06-28T04:19:27.371Z,92.10
2018-06-28T04:21:58.292Z,92.00
2018-06-28T04:24:28.818Z,92.50
2018-06-28T04:26:59.519Z,92.20
2018-06-28T04:29:30.133Z,92.40
2018-06-28T04:32:00.794Z,92.80
2018-06-28T04:37:01.690Z,92.40
2018-06-28T04:39:32.390Z,92.00
2018-06-28T04:42:02.815Z,92.30
2018-06-28T04:44:33.565Z,92.90
2018-06-28T04:47:04.087Z,92.90
2018-06-28T04:49:35.537Z,92.60
2018-06-28T04:52:07.437Z,92.80
2018-06-28T04:54:37.951Z,92.60
2018-06-28T04:57:08.557Z,92.70
2018-06-28T04:59:39.252Z,92.80
2018-06-28T05:02:10.133Z,92.10
2018-06-28T05:04:40.776Z,91.90
2018-06-28T05:07:11.345Z,92.50
2018-06-28T05:09:42.719Z,92.10
2018-06-28T05:12:13.260Z,91.70
2018-06-28T05:14:44.111Z,91.40
2018-06-28T05:17:14.917Z,90.10
2018-06-28T05:19:45.337Z,88.00
2018-06-28T05:22:16.104Z,85.80
2018-06-28T05:24:46.735Z,84.30
2018-06-28T05:27:17.562Z,78.40
2018-06-28T05:29:48.813Z,72.40
2018-06-28T05:34:49.797Z,62.70
2018-06-28T05:37:20.361Z,58.30
2018-06-28T05:39:51.090Z,54.60
2018-06-28T05:42:21.731Z,52.40
2018-06-28T05:44:52.307Z,51.50
2018-06-28T05:47:22.980Z,49.40
2018-06-28T05:49:53.610Z,47.50
2018-06-28T05:52:24.073Z,46.20
2018-06-28T05:54:54.509Z,45.00
2018-06-28T05:57:25.149Z,43.20
2018-06-28T05:59:55.804Z,44.30
2018-06-28T06:02:26.350Z,42.90
2018-06-28T06:04:56.812Z,43.00
2018-06-28T06:07:27.456Z,39.80
2018-06-28T06:10:00.772Z,36.60
2018-06-28T06:12:31.840Z,36.20
2018-06-28T06:15:02.752Z,36.90
2018-06-28T06:17:33.424Z,34.30
2018-06-28T06:20:04.338Z,36.30
2018-06-28T06:22:35.053Z,34.00
2018-06-28T06:25:05.982Z,33.30
2018-06-28T06:27:36.673Z,34.30
2018-06-28T06:30:08.337Z,33.70
2018-06-28T06:32:39.310Z,34.80
2018-06-28T06:35:09.967Z,34.60
2018-06-28T06:37:40.661Z,36.30
2018-06-28T06:40:11.442Z,35.30
2018-06-28T06:42:42.361Z,35.10
2018-06-28T06:45:13.715Z,36.00
2018-06-28T06:47:44.393Z,36.10
2018-06-28T06:50:14.994Z,34.50
2018-06-28T06:52:46.030Z,34.40
2018-06-28T06:55:16.636Z,34.10
2018-06-28T06:57:47.194Z,35.40
2018-06-28T07:00:17.770Z,34.60
2018-06-28T07:02:48.329Z,34.80
2018-06-28T07:05:18.785Z,32.80
2018-06-28T07:07:49.482Z,33.30
2018-06-28T07:10:19.905Z,32.10
2018-06-28T07:12:50.566Z,31.60
2018-06-28T07:15:21.126Z,33.30
2018-06-28T07:17:51.769Z,32.70
2018-06-28T07:20:22.380Z,30.40
2018-06-28T07:22:53.236Z,30.60
2018-06-28T07:25:23.837Z,30.50
2018-06-28T07:27:54.552Z,30.80
2018-06-28T07:30:25.185Z,31.80
2018-06-28T07:32:55.765Z,29.90
2018-06-28T07:35:26.370Z,31.10
2018-06-28T07:37:56.928Z,30.00
2018-06-28T07:40:27.905Z,30.60
2018-06-28T07:42:58.550Z,29.40
2018-06-28T07:45:29.190Z,29.40
2018-06-28T07:47:59.924Z,30.50
2018-06-28T07:50:30.610Z,28.20
2018-06-28T07:53:01.387Z,28.40
2018-06-28T07:55:32.024Z,28.40
2018-06-28T07:58:02.961Z,29.40
2018-06-28T08:00:33.579Z,29.40
2018-06-28T08:03:04.206Z,27.90
2018-06-28T08:05:35.071Z,28.20
2018-06-28T08:08:05.747Z,30.10
2018-06-28T08:10:36.461Z,30.40
2018-06-28T08:13:07.120Z,27.90
2018-06-28T08:15:39.029Z,27.60
2018-06-28T08:18:09.835Z,28.80
2018-06-28T08:20:40.422Z,27.70
2018-06-28T08:23:11.140Z,27.50
2018-06-28T08:25:42.037Z,27.30
2018-06-28T08:28:12.569Z,29.30
2018-06-28T08:30:43.630Z,28.60
2018-06-28T08:33:14.546Z,28.80
2018-06-28T08:35:48.274Z,29.50
2018-06-28T08:38:19.597Z,30.00
2018-06-28T08:40:50.266Z,29.70
2018-06-28T08:43:21.057Z,31.60
2018-06-28T08:45:51.759Z,30.10
2018-06-28T08:48:22.558Z,31.20
2018-06-28T08:50:53.115Z,29.00
2018-06-28T08:53:23.809Z,27.50
2018-06-28T08:55:54.465Z,27.70
2018-06-28T08:58:24.999Z,27.90
2018-06-28T09:00:55.736Z,27.80
2018-06-28T09:03:26.851Z,29.20
2018-06-28T09:05:57.620Z,30.60
2018-06-28T09:08:28.978Z,29.10
2018-06-28T09:10:59.785Z,29.60
2018-06-28T09:13:30.288Z,28.70
2018-06-28T09:16:00.851Z,29.00
2018-06-28T09:18:32.112Z,29.60
2018-06-28T09:21:02.777Z,29.50
2018-06-28T09:23:33.356Z,28.70
2018-06-28T09:26:04.106Z,29.40
2018-06-28T09:28:34.923Z,30.00
2018-06-28T09:31:05.663Z,30.60
2018-06-28T09:33:36.302Z,29.50
2018-06-28T09:36:08.081Z,29.70
2018-06-28T09:38:38.651Z,29.20
2018-06-28T09:41:09.136Z,29.60
2018-06-28T09:43:40.529Z,30.60
2018-06-28T09:46:11.782Z,32.10
2018-06-28T09:48:42.423Z,30.70
2018-06-28T09:51:13.848Z,30.80
2018-06-28T09:53:44.517Z,30.50
2018-06-28T09:56:14.992Z,28.10
2018-06-28T09:58:45.808Z,29.90
2018-06-28T10:01:16.488Z,28.30
2018-06-28T10:03:47.088Z,27.50
2018-06-28T10:06:17.681Z,30.50
2018-06-28T10:08:48.710Z,30.00
2018-06-28T10:11:19.327Z,30.20
2018-06-28T10:13:50.160Z,29.40
2018-06-28T10:16:20.819Z,28.80
2018-06-28T10:18:51.765Z,29.00
2018-06-28T10:21:22.357Z,29.90
2018-06-28T10:23:53.239Z,31.50
2018-06-28T10:26:23.859Z,32.60
2018-06-28T10:28:54.703Z,32.20
2018-06-28T10:31:25.462Z,32.50
2018-06-28T10:33:56.039Z,33.70
2018-06-28T10:36:26.876Z,34.20
2018-06-28T10:38:57.745Z,32.60
2018-06-28T10:41:28.490Z,31.00
2018-06-28T10:43:59.144Z,31.50
2018-06-28T10:46:29.815Z,31.60
2018-06-28T10:49:00.457Z,31.70
2018-06-28T10:51:31.376Z,33.60
2018-06-28T10:54:02.186Z,31.60
2018-06-28T10:56:32.913Z,34.30
2018-06-28T10:59:03.368Z,30.70
2018-06-28T11:01:34.108Z,32.10
2018-06-28T11:04:04.660Z,32.90
2018-06-28T11:09:08.364Z,32.30
2018-06-28T11:11:39.601Z,32.90
2018-06-28T11:14:10.363Z,35.80
2018-06-28T11:16:41.259Z,36.00
2018-06-28T11:19:11.744Z,36.40
2018-06-28T11:21:42.555Z,37.10
2018-06-28T11:26:43.170Z,38.10
2018-06-28T11:29:13.884Z,39.60
2018-06-28T11:31:44.437Z,38.60
2018-06-28T11:34:15.129Z,40.20
2018-06-28T11:36:45.785Z,38.90
2018-06-28T11:39:23.036Z,39.70
2018-06-28T11:41:53.626Z,40.80
2018-06-28T11:44:24.293Z,40.20
2018-06-28T11:46:54.897Z,40.60
2018-06-28T11:49:25.561Z,41.50
2018-06-28T11:51:56.709Z,40.20
2018-06-28T11:54:27.177Z,39.40
2018-06-28T11:56:57.775Z,38.40
2018-06-28T11:59:28.546Z,39.30
2018-06-28T12:01:59.428Z,39.80
2018-06-28T12:04:31.939Z,42.00
2018-06-28T12:07:02.658Z,40.90
2018-06-28T12:09:33.390Z,41.70
2018-06-28T12:12:04.206Z,40.90
2018-06-28T12:14:34.758Z,39.40
2018-06-28T12:17:05.548Z,39.40
2018-06-28T12:19:36.220Z,40.00
2018-06-28T12:22:06.929Z,39.70
2018-06-28T12:27:07.970Z,40.10
2018-06-28T12:29:38.611Z,39.60
2018-06-28T12:32:09.266Z,39.30
2018-06-28T12:34:40.013Z,38.60
2018-06-28T12:37:10.637Z,38.70
2018-06-28T12:39:42.307Z,39.90
2018-06-28T12:42:13.606Z,37.70
2018-06-28T12:44:44.158Z,38.30
2018-06-28T12:47:55.003Z,38.70
2018-06-28T12:50:26.204Z,38.80
2018-06-28T12:53:12.411Z,39.20
2018-06-28T12:56:50.892Z,40.70
2018-06-28T12:59:23.289Z,39.90
2018-06-28T13:01:54.213Z,40.60
2018-06-28T13:04:24.878Z,40.90
2018-06-28T13:06:55.485Z,39.10
2018-06-28T13:09:26.137Z,41.10
2018-06-28T13:11:56.670Z,40.80
2018-06-28T13:14:27.204Z,41.40
2018-06-28T13:16:57.975Z,41.30
2018-06-28T13:19:28.613Z,38.90
2018-06-28T13:21:59.246Z,40.40
2018-06-28T13:24:32.833Z,40.00
2018-06-28T13:27:03.501Z,39.40
2018-06-28T13:29:34.251Z,39.20
2018-06-28T13:32:05.292Z,40.20
2018-06-28T13:34:35.989Z,38.60
2018-06-28T13:37:06.669Z,38.20
2018-06-28T13:39:37.444Z,38.30
2018-06-28T13:42:08.322Z,39.30
2018-06-28T13:44:38.886Z,38.90
2018-06-28T13:47:09.774Z,39.70
2018-06-28T13:49:40.448Z,39.50
2018-06-28T13:52:11.262Z,39.60
2018-06-28T13:54:42.127Z,37.90
2018-06-28T13:57:12.977Z,39.00
2018-06-28T13:59:43.559Z,38.70
2018-06-28T14:02:14.236Z,38.20
2018-06-28T14:04:45.026Z,39.10
2018-06-28T14:07:15.783Z,39.00
2018-06-28T14:09:46.639Z,40.80
2018-06-28T14:12:17.294Z,41.00
2018-06-28T14:14:47.938Z,41.40
2018-06-28T14:17:18.680Z,41.60
2018-06-28T14:19:49.395Z,41.10
2018-06-28T14:22:20.177Z,41.40
2018-06-28T14:24:51.157Z,40.40
2018-06-28T14:27:21.834Z,39.30
2018-06-28T14:32:22.567Z,40.60
2018-06-28T14:34:53.124Z,41.70
2018-06-28T14:37:24.373Z,42.40
2018-06-28T14:39:55.179Z,42.70
2018-06-28T14:42:25.840Z,41.60
2018-06-28T14:44:56.682Z,41.60
2018-06-28T14:47:27.506Z,42.00
2018-06-28T14:49:58.443Z,41.00
2018-06-28T14:52:29.488Z,40.00
2018-06-28T14:55:00.196Z,40.80
2018-06-28T14:57:30.811Z,39.40
2018-06-28T15:00:01.423Z,39.10
2018-06-28T15:02:32.186Z,39.60
2018-06-28T15:05:02.900Z,40.00
2018-06-28T15:07:33.527Z,40.30
2018-06-28T15:10:04.317Z,40.60
2018-06-28T15:12:37.829Z,39.90
2018-06-28T15:15:08.485Z,38.40
2018-06-28T15:17:39.248Z,39.70
2018-06-28T15:20:09.895Z,38.10
2018-06-28T15:22:40.881Z,38.80
2018-06-28T15:25:11.513Z,38.80
2018-06-28T15:27:42.114Z,40.00
2018-06-28T15:30:13.541Z,40.00
2018-06-28T15:32:44.254Z,40.90
2018-06-28T15:35:14.857Z,42.00
2018-06-28T15:37:45.566Z,42.40
2018-06-28T15:40:16.121Z,43.30
2018-06-28T15:42:46.744Z,43.00
2018-06-28T15:45:17.566Z,43.80
2018-06-28T15:47:48.264Z,43.90
2018-06-28T15:50:20.205Z,43.80
2018-06-28T15:52:50.893Z,43.60
2018-06-28T15:55:21.533Z,43.00
2018-06-28T15:57:53.163Z,43.00
2018-06-28T16:00:23.819Z,43.80
2018-06-28T16:02:54.471Z,43.50
2018-06-28T16:05:25.091Z,43.30
2018-06-28T16:07:55.729Z,43.80
2018-06-28T16:10:26.485Z,43.40
2018-06-28T16:12:57.086Z,43.50
2018-06-28T16:15:27.797Z,42.80
2018-06-28T16:17:58.618Z,43.60
2018-06-28T16:20:29.430Z,42.90
2018-06-28T16:23:00.437Z,43.60
2018-06-28T16:25:31.202Z,43.20
2018-06-28T16:28:01.818Z,43.50
2018-06-28T16:30:32.747Z,43.90
2018-06-28T16:33:03.391Z,42.70
2018-06-28T16:35:33.903Z,43.20
2018-06-28T16:38:04.501Z,43.00
2018-06-28T16:40:35.162Z,43.70
2018-06-28T16:43:06.240Z,44.80
2018-06-28T16:45:36.852Z,43.80
2018-06-28T16:48:08.075Z,44.60
2018-06-28T16:50:39.378Z,44.70
2018-06-28T16:53:10.295Z,45.50
2018-06-28T16:58:11.674Z,45.40
2018-06-28T17:00:42.371Z,45.50
2018-06-28T17:03:15.553Z,45.80
2018-06-28T17:05:46.642Z,45.60
2018-06-28T17:08:17.468Z,44.80
2018-06-28T17:10:49.365Z,45.00
2018-06-28T17:13:19.949Z,45.20
2018-06-28T17:15:50.870Z,45.00
2018-06-28T17:18:21.469Z,43.60
2018-06-28T17:23:22.338Z,43.80
2018-06-28T17:25:53.067Z,45.20
2018-06-28T17:28:23.990Z,45.60
2018-06-28T17:30:54.702Z,45.70
2018-06-28T17:33:25.417Z,45.50
2018-06-28T17:35:56.011Z,45.70
2018-06-28T17:38:27.230Z,46.40
2018-06-28T17:40:57.899Z,46.20
2018-06-28T17:43:28.693Z,46.20
2018-06-28T17:45:59.257Z,46.50
2018-06-28T17:48:30.312Z,46.60
2018-06-28T17:51:02.002Z,46.70
2018-06-28T17:53:38.645Z,46.90
2018-06-28T17:56:09.632Z,47.60
2018-06-28T17:58:40.261Z,48.00
2018-06-28T18:01:10.943Z,47.50
2018-06-28T18:03:41.536Z,47.50
2018-06-28T18:06:13.024Z,47.70
2018-06-28T18:08:43.739Z,48.10
2018-06-28T18:11:14.494Z,48.50
2018-06-28T18:13:45.302Z,48.60
2018-06-28T18:18:46.543Z,49.40
2018-06-28T18:21:17.214Z,51.20
2018-06-28T18:23:48.165Z,52.10
2018-06-28T18:26:18.906Z,52.40
2018-06-28T18:28:50.200Z,51.80
2018-06-28T18:33:51.039Z,51.90
2018-06-28T18:36:21.998Z,53.10
2018-06-28T18:38:52.658Z,53.10
2018-06-28T18:41:23.500Z,51.50
2018-06-28T18:43:54.712Z,52.90
2018-06-28T18:46:25.385Z,50.20
2018-06-28T18:48:56.186Z,49.70
2018-06-28T18:53:57.293Z,50.10
2018-06-28T18:56:28.476Z,50.70
2018-06-28T18:58:59.042Z,49.80
2018-06-28T19:01:29.553Z,52.00
2018-06-28T19:04:00.218Z,52.30
2018-06-28T19:06:31.025Z,53.50
2018-06-28T19:11:32.169Z,55.40
2018-06-28T19:14:07.852Z,54.80
2018-06-28T19:16:43.740Z,55.10
2018-06-28T19:19:14.298Z,57.90
2018-06-28T19:21:50.274Z,56.60
2018-06-28T19:24:20.914Z,57.60
2018-06-28T19:26:51.716Z,56.30
2018-06-28T19:29:27.499Z,58.10
2018-06-28T19:34:33.797Z,60.10
2018-06-28T19:37:04.531Z,59.60
2018-06-28T19:39:40.370Z,60.00
2018-06-28T19:44:46.545Z,61.40
2018-06-28T19:47:17.243Z,63.40
2018-06-28T19:49:52.985Z,63.00
2018-06-28T19:52:28.753Z,62.30
2018-06-28T19:54:59.317Z,62.70
2018-06-28T19:57:29.973Z,63.80
2018-06-28T20:00:00.477Z,64.40
2018-06-28T20:05:11.427Z,59.80
2018-06-28T20:07:42.222Z,59.60
2018-06-28T20:10:12.787Z,59.50
2018-06-28T20:12:48.891Z,59.00
2018-06-28T20:15:26.487Z,61.20
2018-06-28T20:18:02.764Z,60.00
2018-06-28T20:20:34.717Z,62.20
2018-06-28T20:23:05.480Z,59.70
2018-06-28T20:25:36.330Z,63.00
2018-06-28T20:28:12.187Z,61.20
2018-06-28T20:30:48.229Z,61.10
2018-06-28T20:33:24.149Z,61.40
2018-06-28T20:35:55.468Z,63.90
2018-06-28T20:38:26.171Z,62.60
2018-06-28T20:40:57.126Z,61.10
2018-06-28T20:43:28.016Z,63.30
2018-06-28T20:45:58.607Z,63.40
2018-06-28T20:48:29.369Z,64.30
2018-06-28T20:56:12.995Z,62.90
2018-06-28T20:58:56.973Z,63.30
2018-06-28T21:01:27.620Z,63.90
2018-06-28T21:03:58.607Z,62.90
2018-06-28T21:06:29.263Z,64.80
2018-06-28T21:08:59.964Z,62.20
2018-06-28T21:11:30.584Z,63.90
2018-06-28T21:14:01.418Z,63.00
2018-06-28T21:16:31.938Z,64.60
2018-06-28T21:19:02.697Z,62.30
2018-06-28T21:21:33.481Z,64.50
2018-06-28T21:24:04.659Z,62.60
2018-06-28T21:26:35.867Z,62.30
2018-06-28T21:29:06.649Z,62.50
2018-06-28T21:31:37.152Z,61.90
2018-06-28T21:34:08.218Z,64.70
2018-06-28T21:36:39.031Z,64.20
2018-06-28T21:39:11.434Z,67.40
2018-06-28T21:41:42.229Z,60.90
2018-06-28T21:44:12.768Z,59.80
2018-06-28T21:46:43.298Z,60.80
2018-06-28T21:49:13.804Z,60.20
2018-06-28T21:51:44.325Z,60.60
2018-06-28T21:54:15.817Z,61.50
2018-06-28T21:56:47.323Z,61.60
2018-06-28T21:59:17.946Z,61.20
2018-06-28T22:01:53.206Z,61.10
2018-06-28T22:04:23.949Z,61.20
2018-06-28T22:06:55.165Z,61.30
2018-06-28T22:09:25.612Z,62.20
2018-06-28T22:11:56.284Z,62.40
2018-06-28T22:14:26.930Z,64.80
2018-06-28T22:16:57.437Z,65.10
2018-06-28T22:21:58.290Z,66.20
2018-06-28T22:24:29.009Z,68.40
2018-06-28T22:26:59.675Z,69.00
2018-06-28T22:29:30.293Z,69.70
2018-06-28T22:32:00.797Z,69.90
2018-06-28T22:34:31.545Z,72.00
2018-06-28T22:39:32.177Z,75.30
2018-06-28T22:42:02.934Z,75.80
2018-06-28T22:44:33.766Z,76.00
2018-06-28T22:47:04.543Z,77.50
2018-06-28T22:49:35.126Z,77.40
2018-06-28T22:52:06.097Z,76.60
2018-06-28T22:54:36.581Z,77.30
2018-06-28T22:57:07.182Z,77.30
2018-06-28T22:59:37.885Z,77.10
2018-06-28T23:02:08.593Z,77.90
2018-06-28T23:07:09.566Z,79.80
2018-06-28T23:17:10.446Z,82.50
2018-06-28T23:19:41.046Z,82.30
2018-06-28T23:22:33.179Z,82.60
2018-06-28T23:25:03.857Z,82.40
2018-06-28T23:27:34.480Z,82.50
2018-06-28T23:30:05.990Z,83.00
2018-06-28T23:32:36.734Z,82.40
2018-06-28T23:35:08.020Z,82.50
2018-06-28T23:40:09.329Z,82.50
2018-06-28T23:42:40.238Z,83.10
2018-06-28T23:45:11.157Z,82.60
2018-06-28T23:47:41.920Z,84.20
2018-06-28T23:50:13.220Z,82.90
2018-06-28T23:52:43.661Z,83.10
2018-06-28T23:55:14.199Z,82.80
2018-06-28T23:57:45.041Z,83.80
